createdAt,value
2019-02-14T00:02:06.335Z,102252.68
2019-02-14T00:04:33.184Z,102250.64
2019-02-14T00:06:59.924Z,102245.39
2019-02-14T00:09:26.677Z,102257.95
2019-02-14T00:11:54.444Z,102260.57
2019-02-14T00:14:21.302Z,102255.78
2019-02-14T00:16:48.166Z,102260.34
2019-02-14T00:19:15.031Z,102259.41
2019-02-14T00:21:41.779Z,102260.23
2019-02-14T00:24:08.563Z,102261.55
2019-02-14T00:26:35.549Z,102264.45
2019-02-14T00:29:02.519Z,102258.92
2019-02-14T00:31:29.258Z,102253.89
2019-02-14T00:33:56.032Z,102253.41
2019-02-14T00:36:22.768Z,102251.57
2019-02-14T00:38:49.634Z,102252.47
2019-02-14T00:41:16.498Z,102250.81
2019-02-14T00:43:43.257Z,102266.09
2019-02-14T00:46:10.213Z,102261.93
2019-02-14T00:48:37.023Z,102265.84
2019-02-14T00:51:03.909Z,102255.67
2019-02-14T00:53:30.786Z,102249.83
2019-02-14T00:55:57.649Z,102243.23
2019-02-14T00:58:24.523Z,102240.00
2019-02-14T01:00:52.297Z,102242.58
2019-02-14T01:03:19.075Z,102235.59
2019-02-14T01:05:45.887Z,102231.97
2019-02-14T01:08:12.628Z,102244.48
2019-02-14T01:10:39.378Z,102241.28
2019-02-14T01:13:06.128Z,102247.03
2019-02-14T01:15:36.188Z,102248.59
2019-02-14T01:18:03.075Z,102252.29
2019-02-14T01:20:33.524Z,102247.52
2019-02-14T01:23:00.262Z,102245.84
2019-02-14T01:25:27.148Z,102252.66
2019-02-14T01:27:55.308Z,102255.80
2019-02-14T01:30:22.107Z,102252.47
2019-02-14T01:32:49.343Z,102254.38
2019-02-14T01:35:16.212Z,102249.00
2019-02-14T01:37:42.947Z,102250.78
2019-02-14T01:40:09.967Z,102254.33
2019-02-14T01:42:36.920Z,102254.73
2019-02-14T01:45:04.753Z,102251.77
2019-02-14T01:47:31.726Z,102254.08
2019-02-14T01:49:58.572Z,102250.33
2019-02-14T01:52:30.438Z,102252.13
2019-02-14T01:54:59.421Z,102243.16
2019-02-14T01:57:26.385Z,102241.73
2019-02-14T01:59:53.164Z,102244.73
2019-02-14T02:02:19.969Z,102249.42
2019-02-14T02:04:46.797Z,102249.12
2019-02-14T02:07:14.634Z,102249.95
2019-02-14T02:09:41.643Z,102244.51
2019-02-14T02:12:08.502Z,102240.09
2019-02-14T02:14:35.241Z,102239.91
2019-02-14T02:17:01.988Z,102248.83
2019-02-14T02:19:28.918Z,102242.77
2019-02-14T02:21:55.795Z,102246.87
2019-02-14T02:24:22.534Z,102246.91
2019-02-14T02:26:49.359Z,102251.77
2019-02-14T02:29:16.104Z,102242.89
2019-02-14T02:31:42.843Z,102254.86
2019-02-14T02:34:09.931Z,102260.45
2019-02-14T02:36:36.813Z,102261.48
2019-02-14T02:39:05.788Z,102262.95
2019-02-14T02:41:33.431Z,102270.48
2019-02-14T02:44:00.389Z,102275.11
2019-02-14T02:46:27.301Z,102272.86
2019-02-14T02:48:53.999Z,102265.55
2019-02-14T02:51:20.738Z,102263.29
2019-02-14T02:53:47.543Z,102266.37
2019-02-14T02:56:14.314Z,102263.41
2019-02-14T02:58:41.150Z,102272.34
2019-02-14T03:01:07.995Z,102264.75
2019-02-14T03:03:34.839Z,102262.91
2019-02-14T03:06:10.212Z,102270.09
2019-02-14T03:08:30.468Z,102266.72
2019-02-14T03:10:57.309Z,102267.58
2019-02-14T03:13:24.199Z,102260.92
2019-02-14T03:15:52.373Z,102267.04
2019-02-14T03:18:19.307Z,102262.98
2019-02-14T03:20:46.078Z,102262.83
2019-02-14T03:23:14.029Z,102267.79
2019-02-14T03:25:40.873Z,102268.61
2019-02-14T03:28:07.606Z,102271.98
2019-02-14T03:30:34.602Z,102266.02
2019-02-14T03:33:01.436Z,102270.17
2019-02-14T03:35:28.170Z,102268.28
2019-02-14T03:37:55.050Z,102266.41
2019-02-14T03:40:21.880Z,102265.17
2019-02-14T03:42:48.641Z,102260.25
2019-02-14T03:45:15.740Z,102261.03
2019-02-14T03:47:42.503Z,102258.06
2019-02-14T03:50:10.538Z,102264.16
2019-02-14T03:52:37.422Z,102257.16
2019-02-14T03:55:04.361Z,102257.62
2019-02-14T03:57:31.215Z,102253.21
2019-02-14T03:59:57.984Z,102258.89
2019-02-14T04:02:24.730Z,102253.24
2019-02-14T04:04:51.485Z,102248.84
2019-02-14T04:07:18.382Z,102246.30
2019-02-14T04:09:45.124Z,102251.03
2019-02-14T04:12:11.901Z,102252.76
2019-02-14T04:14:38.652Z,102251.32
2019-02-14T04:17:05.501Z,102258.39
2019-02-14T04:19:32.373Z,102260.16
2019-02-14T04:21:59.166Z,102258.35
2019-02-14T04:24:26.010Z,102264.98
2019-02-14T04:26:52.738Z,102264.90
2019-02-14T04:29:19.613Z,102265.95
2019-02-14T04:31:46.340Z,102268.05
2019-02-14T04:34:13.194Z,102274.10
2019-02-14T04:36:40.016Z,102271.43
2019-02-14T04:39:07.403Z,102276.47
2019-02-14T04:41:34.248Z,102277.66
2019-02-14T04:44:01.029Z,102276.58
2019-02-14T04:46:27.773Z,102280.35
2019-02-14T04:48:54.505Z,102283.27
2019-02-14T04:51:21.699Z,102276.59
2019-02-14T04:53:48.655Z,102278.61
2019-02-14T04:56:15.414Z,102280.57
2019-02-14T04:58:42.381Z,102287.59
2019-02-14T05:01:09.220Z,102288.72
2019-02-14T05:03:35.995Z,102291.64
2019-02-14T05:06:02.866Z,102292.86
2019-02-14T05:08:29.705Z,102296.07
2019-02-14T05:10:56.445Z,102296.79
2019-02-14T05:13:23.193Z,102299.61
2019-02-14T05:15:50.047Z,102292.77
2019-02-14T05:18:17.893Z,102300.80
2019-02-14T05:20:44.687Z,102299.14
2019-02-14T05:23:11.533Z,102304.99
2019-02-14T05:25:38.538Z,102307.77
2019-02-14T05:28:06.589Z,102307.59
2019-02-14T05:30:33.499Z,102305.11
2019-02-14T05:33:02.389Z,102305.14
2019-02-14T05:35:31.791Z,102303.17
2019-02-14T05:37:58.749Z,102302.81
2019-02-14T05:40:25.506Z,102296.95
2019-02-14T05:42:52.605Z,102299.50
2019-02-14T05:45:19.338Z,102297.98
2019-02-14T05:47:47.216Z,102304.75
2019-02-14T05:50:14.036Z,102300.73
2019-02-14T05:52:40.820Z,102296.05
2019-02-14T05:55:08.690Z,102301.39
2019-02-14T05:57:35.588Z,102303.19
2019-02-14T06:00:04.463Z,102291.56
2019-02-14T06:02:32.235Z,102296.66
2019-02-14T06:04:59.465Z,102300.98
2019-02-14T06:07:26.232Z,102301.90
2019-02-14T06:09:53.105Z,102303.55
2019-02-14T06:12:20.162Z,102301.80
2019-02-14T06:14:47.114Z,102306.04
2019-02-14T06:17:14.080Z,102311.55
2019-02-14T06:19:41.089Z,102312.20
2019-02-14T06:22:07.840Z,102309.08
2019-02-14T06:24:34.801Z,102307.81
2019-02-14T06:27:01.672Z,102312.14
2019-02-14T06:29:28.394Z,102326.67
2019-02-14T06:31:55.263Z,102327.16
2019-02-14T06:34:22.273Z,102335.25
2019-02-14T06:36:49.235Z,102331.03
2019-02-14T06:39:16.124Z,102334.91
2019-02-14T06:41:43.012Z,102335.72
2019-02-14T06:44:09.774Z,102334.34
2019-02-14T06:46:36.799Z,102339.52
2019-02-14T06:49:03.655Z,102345.11
2019-02-14T06:51:30.431Z,102344.92
2019-02-14T06:53:57.413Z,102346.48
2019-02-14T06:56:24.413Z,102347.98
2019-02-14T06:58:51.317Z,102350.09
2019-02-14T07:01:18.077Z,102350.02
2019-02-14T07:03:44.975Z,102356.72
2019-02-14T07:06:11.921Z,102362.88
2019-02-14T07:08:38.684Z,102358.80
2019-02-14T07:11:05.573Z,102368.45
2019-02-14T07:13:32.317Z,102366.02
2019-02-14T07:15:59.177Z,102370.91
2019-02-14T07:18:25.993Z,102373.36
2019-02-14T07:20:52.732Z,102375.61
2019-02-14T07:23:19.604Z,102378.00
2019-02-14T07:25:46.346Z,102383.41
2019-02-14T07:28:13.140Z,102394.62
2019-02-14T07:30:39.981Z,102390.90
2019-02-14T07:33:06.932Z,102386.34
2019-02-14T07:35:33.893Z,102388.05
2019-02-14T07:38:00.647Z,102394.22
2019-02-14T07:40:27.455Z,102394.86
2019-02-14T07:42:54.318Z,102399.36
2019-02-14T07:45:21.073Z,102398.00
2019-02-14T07:47:47.953Z,102408.05
2019-02-14T07:50:14.709Z,102401.74
2019-02-14T07:52:41.486Z,102404.33
2019-02-14T07:55:08.576Z,102406.13
2019-02-14T07:57:35.654Z,102413.09
2019-02-14T08:00:03.059Z,102407.20
2019-02-14T08:02:30.361Z,102413.19
2019-02-14T08:04:57.316Z,102415.38
2019-02-14T08:07:24.092Z,102425.31
2019-02-14T08:09:50.896Z,102433.20
2019-02-14T08:12:17.757Z,102429.00
2019-02-14T08:14:44.734Z,102429.52
2019-02-14T08:17:11.739Z,102430.06
2019-02-14T08:19:38.472Z,102431.04
2019-02-14T08:22:05.426Z,102428.25
2019-02-14T08:24:32.205Z,102433.87
2019-02-14T08:26:59.115Z,102429.56
2019-02-14T08:29:25.977Z,102432.35
2019-02-14T08:31:52.877Z,102431.48
2019-02-14T08:34:19.633Z,102430.81
2019-02-14T08:36:46.604Z,102433.81
2019-02-14T08:39:13.358Z,102441.57
2019-02-14T08:41:40.312Z,102449.98
2019-02-14T08:44:07.154Z,102445.11
2019-02-14T08:46:33.945Z,102441.82
2019-02-14T08:49:00.899Z,102437.60
2019-02-14T08:51:27.755Z,102434.44
2019-02-14T08:53:54.573Z,102435.12
2019-02-14T08:56:21.428Z,102444.95
2019-02-14T08:58:48.309Z,102439.08
2019-02-14T09:01:15.172Z,102431.48
2019-02-14T09:03:41.909Z,102433.61
2019-02-14T09:06:08.840Z,102429.78
2019-02-14T09:08:35.644Z,102428.47
2019-02-14T09:11:02.518Z,102424.44
2019-02-14T09:13:29.269Z,102412.40
2019-02-14T09:15:56.206Z,102409.73
2019-02-14T09:18:23.067Z,102405.70
2019-02-14T09:20:51.881Z,102409.15
2019-02-14T09:23:20.282Z,102409.05
2019-02-14T09:25:47.017Z,102411.12
2019-02-14T09:28:13.861Z,102403.94
2019-02-14T09:30:40.664Z,102409.41
2019-02-14T09:33:07.402Z,102406.09
2019-02-14T09:35:34.147Z,102405.70
2019-02-14T09:38:03.514Z,102397.36
2019-02-14T09:40:29.674Z,102404.70
2019-02-14T09:42:56.435Z,102404.84
2019-02-14T09:45:23.224Z,102400.05
2019-02-14T09:47:49.952Z,102405.99
2019-02-14T09:50:16.708Z,102406.92
2019-02-14T09:52:43.723Z,102398.81
2019-02-14T09:55:10.466Z,102396.28
2019-02-14T09:57:37.448Z,102397.47
2019-02-14T10:00:06.040Z,102403.11
2019-02-14T10:02:32.951Z,102402.91
2019-02-14T10:04:59.705Z,102405.75
2019-02-14T10:07:26.634Z,102417.37
2019-02-14T10:09:53.585Z,102411.13
2019-02-14T10:12:20.546Z,102402.02
2019-02-14T10:14:47.322Z,102398.67
2019-02-14T10:17:22.058Z,102393.20
2019-02-14T10:19:42.814Z,102397.73
2019-02-14T10:22:10.985Z,102398.30
2019-02-14T10:24:37.715Z,102399.80
2019-02-14T10:27:04.448Z,102399.44
2019-02-14T10:29:31.312Z,102401.38
2019-02-14T10:31:58.042Z,102391.16
2019-02-14T10:34:24.973Z,102389.84
2019-02-14T10:36:52.588Z,102390.03
2019-02-14T10:39:19.585Z,102398.68
2019-02-14T10:41:46.387Z,102394.89
2019-02-14T10:44:13.416Z,102392.98
2019-02-14T10:46:40.307Z,102396.70
2019-02-14T10:49:08.421Z,102396.63
2019-02-14T10:51:35.423Z,102392.84
2019-02-14T10:54:04.370Z,102390.69
2019-02-14T10:56:31.109Z,102384.73
2019-02-14T10:58:59.791Z,102378.91
2019-02-14T11:01:26.673Z,102369.77
2019-02-14T11:03:53.418Z,102371.57
2019-02-14T11:06:20.211Z,102376.64
2019-02-14T11:08:47.066Z,102373.06
2019-02-14T11:11:13.831Z,102369.30
2019-02-14T11:13:40.648Z,102378.97
2019-02-14T11:16:09.635Z,102374.28
2019-02-14T11:18:43.972Z,102363.48
2019-02-14T11:21:05.295Z,102354.09
2019-02-14T11:23:32.250Z,102362.41
2019-02-14T11:25:59.222Z,102368.52
2019-02-14T11:28:26.045Z,102367.42
2019-02-14T11:30:52.895Z,102362.25
2019-02-14T11:33:19.774Z,102349.69
2019-02-14T11:35:46.726Z,102347.52
2019-02-14T11:38:13.521Z,102346.20
2019-02-14T11:40:40.261Z,102338.52
2019-02-14T11:43:07.387Z,102343.64
2019-02-14T11:45:34.133Z,102338.25
2019-02-14T11:48:01.103Z,102332.22
2019-02-14T11:50:27.916Z,102332.20
2019-02-14T11:52:54.769Z,102330.66
2019-02-14T11:55:22.724Z,102332.80
2019-02-14T11:57:49.544Z,102327.27
2019-02-14T12:00:19.533Z,102324.89
2019-02-14T12:02:54.729Z,102320.53
2019-02-14T12:05:15.099Z,102319.98
2019-02-14T12:07:41.964Z,102320.64
2019-02-14T12:10:13.361Z,102324.59
2019-02-14T12:12:37.941Z,102314.87
2019-02-14T12:15:04.977Z,102314.26
2019-02-14T12:17:31.828Z,102305.89
2019-02-14T12:19:58.619Z,102303.07
2019-02-14T12:22:25.581Z,102301.11
2019-02-14T12:24:52.492Z,102298.58
2019-02-14T12:27:19.266Z,102286.91
2019-02-14T12:29:46.009Z,102283.06
2019-02-14T12:32:12.782Z,102273.44
2019-02-14T12:34:39.691Z,102278.56
2019-02-14T12:37:06.485Z,102264.75
2019-02-14T12:39:33.471Z,102252.49
2019-02-14T12:42:00.476Z,102248.97
2019-02-14T12:44:27.244Z,102250.77
2019-02-14T12:46:54.097Z,102250.96
2019-02-14T12:49:20.865Z,102247.97
2019-02-14T12:51:47.830Z,102243.64
2019-02-14T12:54:14.587Z,102240.63
2019-02-14T12:56:41.344Z,102250.06
2019-02-14T12:59:08.201Z,102242.64
2019-02-14T13:01:35.193Z,102238.66
2019-02-14T13:04:02.079Z,102238.33
2019-02-14T13:06:29.048Z,102233.21
2019-02-14T13:08:55.773Z,102228.45
2019-02-14T13:11:22.678Z,102227.48
2019-02-14T13:13:50.683Z,102228.05
2019-02-14T13:16:18.201Z,102227.98
2019-02-14T13:18:45.120Z,102221.57
2019-02-14T13:21:11.874Z,102217.27
2019-02-14T13:23:38.635Z,102211.44
2019-02-14T13:26:05.511Z,102210.88
2019-02-14T13:28:32.381Z,102207.98
2019-02-14T13:30:59.339Z,102214.48
2019-02-14T13:33:26.319Z,102205.84
2019-02-14T13:35:53.175Z,102204.48
2019-02-14T13:38:19.925Z,102201.38
2019-02-14T13:40:46.937Z,102194.55
2019-02-14T13:43:13.825Z,102202.42
2019-02-14T13:45:40.599Z,102190.16
2019-02-14T13:48:11.357Z,102187.78
2019-02-14T13:50:38.354Z,102186.30
2019-02-14T13:53:05.172Z,102178.41
2019-02-14T13:55:33.871Z,102171.88
2019-02-14T13:58:00.893Z,102170.64
2019-02-14T14:00:27.746Z,102175.48
2019-02-14T14:02:54.838Z,102168.04
2019-02-14T14:05:28.408Z,102162.72
2019-02-14T14:07:55.861Z,102159.86
2019-02-14T14:10:22.766Z,102155.73
2019-02-14T14:12:49.736Z,102164.48
2019-02-14T14:15:16.725Z,102155.57
2019-02-14T14:17:43.537Z,102151.63
2019-02-14T14:20:10.435Z,102143.00
2019-02-14T14:22:37.460Z,102145.17
2019-02-14T14:25:07.216Z,102139.03
2019-02-14T14:27:33.988Z,102143.55
2019-02-14T14:30:03.045Z,102150.61
2019-02-14T14:32:31.611Z,102143.73
2019-02-14T14:34:58.489Z,102147.23
2019-02-14T14:37:25.257Z,102148.23
2019-02-14T14:40:01.423Z,102137.95
2019-02-14T14:42:55.472Z,102142.31
2019-02-14T14:45:33.028Z,102139.64
2019-02-14T14:48:00.204Z,102141.92
2019-02-14T14:50:26.947Z,102137.75
2019-02-14T14:52:53.820Z,102137.48
2019-02-14T14:55:20.615Z,102134.50
2019-02-14T14:57:47.476Z,102138.23
2019-02-14T15:00:14.222Z,102135.51
2019-02-14T15:02:41.124Z,102124.50
2019-02-14T15:05:07.858Z,102118.78
2019-02-14T15:07:35.041Z,102120.70
2019-02-14T15:10:02.037Z,102115.88
2019-02-14T15:12:30.675Z,102118.70
2019-02-14T15:14:59.884Z,102119.27
2019-02-14T15:17:28.013Z,102112.33
2019-02-14T15:19:55.000Z,102112.76
2019-02-14T15:22:22.003Z,102112.52
2019-02-14T15:24:48.789Z,102119.97
2019-02-14T15:27:15.640Z,102119.06
2019-02-14T15:29:42.388Z,102114.48
2019-02-14T15:32:09.260Z,102110.23
2019-02-14T15:34:36.012Z,102112.07
2019-02-14T15:37:03.352Z,102118.02
2019-02-14T15:39:30.168Z,102117.92
2019-02-14T15:41:56.969Z,102118.58
2019-02-14T15:44:23.720Z,102116.37
2019-02-14T15:46:56.874Z,102110.48
2019-02-14T15:49:29.911Z,102106.27
2019-02-14T15:51:59.331Z,102112.08
2019-02-14T15:54:26.131Z,102104.48
2019-02-14T15:56:53.651Z,102103.85
2019-02-14T15:59:23.764Z,102110.70
2019-02-14T16:01:50.714Z,102106.92
2019-02-14T16:04:17.716Z,102101.88
2019-02-14T16:06:44.483Z,102099.29
2019-02-14T16:09:12.283Z,102110.67
2019-02-14T16:11:40.085Z,102109.16
2019-02-14T16:14:07.081Z,102113.17
2019-02-14T16:16:33.941Z,102115.02
2019-02-14T16:19:00.683Z,102116.78
2019-02-14T16:21:29.383Z,102109.53
2019-02-14T16:23:56.499Z,102113.91
2019-02-14T16:26:23.385Z,102113.78
2019-02-14T16:28:51.742Z,102117.13
2019-02-14T16:31:18.467Z,102122.19
2019-02-14T16:33:45.305Z,102121.92
2019-02-14T16:36:12.340Z,102117.27
2019-02-14T16:38:39.117Z,102113.88
2019-02-14T16:41:05.960Z,102115.54
2019-02-14T16:43:32.885Z,102120.63
2019-02-14T16:45:59.732Z,102124.80
2019-02-14T16:48:26.573Z,102140.55
2019-02-14T16:50:53.379Z,102129.78
2019-02-14T16:53:20.191Z,102134.09
2019-02-14T16:55:47.822Z,102133.45
2019-02-14T16:58:14.713Z,102134.58
2019-02-14T17:00:41.571Z,102131.64
2019-02-14T17:03:08.321Z,102134.42
2019-02-14T17:05:35.123Z,102136.66
2019-02-14T17:08:01.985Z,102148.84
2019-02-14T17:10:36.812Z,102138.03
2019-02-14T17:13:03.454Z,102143.99
2019-02-14T17:15:31.806Z,102144.26
2019-02-14T17:17:58.783Z,102142.25
2019-02-14T17:20:25.812Z,102143.56
2019-02-14T17:22:52.798Z,102146.98
2019-02-14T17:25:19.706Z,102140.44
2019-02-14T17:27:46.531Z,102148.11
2019-02-14T17:30:13.519Z,102136.72
2019-02-14T17:32:40.297Z,102137.28
2019-02-14T17:35:07.096Z,102138.76
2019-02-14T17:37:33.945Z,102137.12
2019-02-14T17:40:00.708Z,102148.95
2019-02-14T17:42:27.462Z,102143.02
2019-02-14T17:44:54.472Z,102143.08
2019-02-14T17:47:21.400Z,102148.52
2019-02-14T17:49:48.398Z,102158.79
2019-02-14T17:52:15.872Z,102155.62
2019-02-14T17:54:44.671Z,102156.00
2019-02-14T17:57:11.541Z,102154.56
2019-02-14T17:59:38.295Z,102156.30
2019-02-14T18:02:05.301Z,102152.11
2019-02-14T18:04:32.336Z,102166.27
2019-02-14T18:06:59.176Z,102162.82
2019-02-14T18:09:26.044Z,102168.80
2019-02-14T18:11:55.063Z,102173.20
2019-02-14T18:14:21.927Z,102172.78
2019-02-14T18:16:48.828Z,102170.25
2019-02-14T18:19:16.420Z,102171.98
2019-02-14T18:21:46.379Z,102167.49
2019-02-14T18:24:13.471Z,102171.75
2019-02-14T18:26:40.375Z,102170.08
2019-02-14T18:29:07.262Z,102165.96
2019-02-14T18:31:34.129Z,102163.09
2019-02-14T18:34:00.917Z,102165.20
2019-02-14T18:36:27.878Z,102166.52
2019-02-14T18:38:54.865Z,102170.95
2019-02-14T18:41:21.634Z,102162.48
2019-02-14T18:43:48.609Z,102156.98
2019-02-14T18:46:15.504Z,102161.55
2019-02-14T18:48:42.466Z,102155.95
2019-02-14T18:51:09.350Z,102158.14
2019-02-14T18:53:36.190Z,102159.82
2019-02-14T18:56:02.944Z,102152.73
2019-02-14T18:58:30.180Z,102156.36
2019-02-14T19:00:57.289Z,102155.27
2019-02-14T19:03:24.323Z,102152.89
2019-02-14T19:05:51.218Z,102148.57
2019-02-14T19:08:18.573Z,102150.75
2019-02-14T19:10:45.420Z,102155.44
2019-02-14T19:13:12.347Z,102158.05
2019-02-14T19:15:39.383Z,102153.82
2019-02-14T19:18:06.816Z,102153.89
2019-02-14T19:20:33.811Z,102154.59
2019-02-14T19:23:00.783Z,102149.92
2019-02-14T19:25:29.561Z,102149.63
2019-02-14T19:27:56.316Z,102150.92
2019-02-14T19:30:23.332Z,102144.02
2019-02-14T19:32:50.321Z,102146.66
2019-02-14T19:35:23.223Z,102146.17
2019-02-14T19:37:45.957Z,102144.98
2019-02-14T19:40:12.831Z,102142.06
2019-02-14T19:42:41.983Z,102137.44
2019-02-14T19:45:08.871Z,102140.05
2019-02-14T19:47:35.948Z,102137.50
2019-02-14T19:50:05.359Z,102132.78
2019-02-14T19:52:33.377Z,102134.30
2019-02-14T19:55:00.343Z,102137.70
2019-02-14T19:57:27.417Z,102132.67
2019-02-14T19:59:54.455Z,102130.46
2019-02-14T20:02:21.322Z,102122.09
2019-02-14T20:04:48.118Z,102125.56
2019-02-14T20:07:15.040Z,102118.02
2019-02-14T20:09:42.014Z,102128.01
2019-02-14T20:12:08.884Z,102121.23
2019-02-14T20:14:35.788Z,102123.83
2019-02-14T20:17:03.159Z,102116.93
2019-02-14T20:19:30.025Z,102119.58
2019-02-14T20:21:56.885Z,102122.23
2019-02-14T20:24:23.743Z,102118.03
2019-02-14T20:26:50.692Z,102118.66
2019-02-14T20:29:17.466Z,102115.75
2019-02-14T20:31:47.255Z,102117.86
2019-02-14T20:34:14.248Z,102117.03
2019-02-14T20:36:41.104Z,102119.59
2019-02-14T20:39:08.129Z,102125.13
2019-02-14T20:41:35.292Z,102120.45
2019-02-14T20:44:02.340Z,102121.28
2019-02-14T20:46:29.192Z,102122.55
2019-02-14T20:48:56.157Z,102125.08
2019-02-14T20:51:23.087Z,102116.89
2019-02-14T20:53:50.077Z,102125.84
2019-02-14T20:56:17.090Z,102121.54
2019-02-14T20:58:44.067Z,102117.33
2019-02-14T21:01:11.020Z,102123.31
2019-02-14T21:03:38.393Z,102124.16
2019-02-14T21:06:05.454Z,102116.03
2019-02-14T21:08:32.384Z,102119.86
2019-02-14T21:10:59.342Z,102118.58
2019-02-14T21:13:29.033Z,102120.75
2019-02-14T21:15:58.173Z,102121.21
2019-02-14T21:18:25.039Z,102122.88
2019-02-14T21:20:51.949Z,102120.29
2019-02-14T21:23:18.818Z,102127.12
2019-02-14T21:25:45.781Z,102119.40
2019-02-14T21:28:12.750Z,102122.47
2019-02-14T21:30:39.716Z,102122.92
2019-02-14T21:33:06.623Z,102128.50
2019-02-14T21:35:33.738Z,102125.53
2019-02-14T21:38:00.602Z,102125.08
2019-02-14T21:40:27.630Z,102134.48
2019-02-14T21:42:54.685Z,102129.78
2019-02-14T21:45:21.546Z,102134.41
2019-02-14T21:47:48.320Z,102134.01
2019-02-14T21:50:15.516Z,102136.58
2019-02-14T21:52:42.563Z,102131.89
2019-02-14T21:55:09.340Z,102124.19
2019-02-14T21:57:36.343Z,102122.03
2019-02-14T22:00:04.236Z,102132.27
2019-02-14T22:02:31.550Z,102130.09
2019-02-14T22:04:58.467Z,102124.97
2019-02-14T22:07:25.434Z,102127.07
2019-02-14T22:09:52.332Z,102124.97
2019-02-14T22:12:38.347Z,102126.71
2019-02-14T22:14:48.089Z,102129.69
2019-02-14T22:17:14.841Z,102128.01
2019-02-14T22:19:42.977Z,102122.44
2019-02-14T22:22:10.054Z,102123.70
2019-02-14T22:24:36.796Z,102124.95
2019-02-14T22:27:03.809Z,102124.92
2019-02-14T22:29:30.920Z,102126.21
2019-02-14T22:31:57.904Z,102118.06
2019-02-14T22:34:24.693Z,102121.09
2019-02-14T22:36:51.446Z,102130.06
2019-02-14T22:39:18.313Z,102121.96
2019-02-14T22:41:45.305Z,102127.07
2019-02-14T22:44:12.198Z,102130.09
2019-02-14T22:46:39.096Z,102132.84
2019-02-14T22:49:06.114Z,102134.16
2019-02-14T22:51:33.019Z,102135.47
2019-02-14T22:53:59.760Z,102131.57
2019-02-14T22:56:26.669Z,102132.80
2019-02-14T22:58:53.639Z,102132.88
2019-02-14T23:01:20.651Z,102140.15
2019-02-14T23:03:47.636Z,102132.88
2019-02-14T23:06:14.508Z,102127.70
2019-02-14T23:08:41.262Z,102132.44
2019-02-14T23:11:08.162Z,102135.44
2019-02-14T23:13:35.147Z,102131.55
2019-02-14T23:16:02.137Z,102133.25
2019-02-14T23:18:28.932Z,102133.70
2019-02-14T23:20:55.799Z,102131.98
2019-02-14T23:23:22.696Z,102137.57
2019-02-14T23:25:49.623Z,102146.14
2019-02-14T23:28:16.766Z,102139.72
2019-02-14T23:30:43.627Z,102141.44
2019-02-14T23:33:10.400Z,102145.27
2019-02-14T23:35:39.213Z,102140.59
2019-02-14T23:38:05.980Z,102141.00
2019-02-14T23:40:32.877Z,102139.30
2019-02-14T23:43:04.732Z,102136.75
2019-02-14T23:45:28.374Z,102142.29
2019-02-14T23:47:55.262Z,102133.30
2019-02-14T23:50:22.006Z,102138.41
2019-02-14T23:52:48.880Z,102140.93
2019-02-14T23:55:15.756Z,102134.13
2019-02-14T23:57:42.748Z,102132.00
